Pacific Journey — 3FFE — position and weather

sailwx.info

Track history (hours):
 
Tides and Currents Weather Stations Pressure Air Temp Water Temp Dewpoint Dewpoint Depression Visibility Wind Speed Wind Dir Waves Ship Positions

Pacific Journey

Last reported at 2017-May-22 17:15 UTC. Time now 2017-May-26 09:28 UTC.
Position S 23°31' W 040°34'.

Length 180 m; draft 10.2 m.

Type: Cargo ship. MMSI: 371467000.

Date/timePositionNaut miles runAvg speedWind from/ knotsBaromVisibWave heightAir tempDewpointWater temp
2017-May-22 17:15S 23°31' W 040°34'2 8.6
2017-May-22 16:59S 23°31' W 040°37'5 8.7
2017-May-22 16:24S 23°32' W 040°42'4 8.7
2017-May-22 15:57S 23°33' W 040°46'4 8.6
2017-May-22 15:30S 23°34' W 040°50'5 8.5
2017-May-22 14:58S 23°35' W 040°55'8 8.2
2017-May-22 14:00S 23°36' W 041°04'20 8.0
2017-May-22 11:25S 23°39' W 041°26'74 8.5
2017-May-22 02:39S 23°12' W 042°41'2 7.8
2017-May-22 02:26S 23°11' W 042°43'3 7.6
2017-May-22 02:00S 23°10' W 042°46'4 7.9
2017-May-22 01:30S 23°08' W 042°50'4 8.2
2017-May-22 01:00S 23°07' W 042°54'4 8.7
2017-May-22 00:30S 23°05' W 042°58'4 8.8
2017-May-22 00:00S 23°04' W 043°03'4 8.9
2017-May-21 23:30S 23°02' W 043°07'4 7.5
2017-May-21 23:00S 22°58' W 043°08'4 7.2
2017-May-21 22:30S 22°54' W 043°09'3 5.4
2017-May-21 22:00S 22°54' W 043°12'0 0.0
2017-May-21 21:30S 22°54' W 043°12'0 0.0
2017-May-21 21:00S 22°54' W 043°12'0 0.0
2017-May-21 20:30S 22°54' W 043°12'0 0.0
2017-May-21 20:00S 22°54' W 043°12'0 0.0
2017-May-21 19:18S 22°54' W 043°12'0 0.0
2017-May-21 19:00S 22°54' W 043°12'0 0.0
2017-May-21 18:30S 22°54' W 043°12'0 0.0
2017-May-21 17:54S 22°54' W 043°12'0 0.0
2017-May-21 17:30S 22°54' W 043°12'0 0.0
2017-May-21 17:00S 22°54' W 043°12'0 0.0
2017-May-21 15:00S 22°54' W 043°12'0 0.0
2017-May-21 14:00S 22°54' W 043°12'0 0.0
2017-May-21 13:30S 22°54' W 043°12'0 0.0
2017-May-21 13:00S 22°54' W 043°12'0 0.0
2017-May-21 12:30S 22°54' W 043°12'0 0.0
2017-May-21 11:48S 22°54' W 043°12'0 0.0
2017-May-21 11:30S 22°54' W 043°12'0 0.0
2017-May-21 10:54S 22°54' W 043°12'0 0.0
2017-May-21 10:30S 22°54' W 043°12'0 0.0
2017-May-21 10:00S 22°54' W 043°12'0 0.0
2017-May-21 09:30S 22°54' W 043°12'0 0.0
2017-May-21 09:00S 22°54' W 043°12'0 0.0
2017-May-21 08:30S 22°54' W 043°12'0 0.0
2017-May-21 07:48S 22°54' W 043°12'0 0.0
2017-May-21 07:30S 22°54' W 043°12'0 0.0
2017-May-21 06:54S 22°54' W 043°12'0 0.0
2017-May-21 06:30S 22°54' W 043°12'0 0.0
2017-May-21 05:42S 22°54' W 043°12'0 0.0
2017-May-21 05:30S 22°54' W 043°12'0 0.0
2017-May-21 05:00S 22°54' W 043°12'0 0.0
2017-May-21 04:30S 22°54' W 043°12'0 0.0
2017-May-21 03:54S 22°54' W 043°12'0 0.0
2017-May-21 03:24S 22°54' W 043°12'0 0.0
2017-May-21 03:00S 22°54' W 043°12'0 0.0
2017-May-21 02:24S 22°54' W 043°12'0 0.0
2017-May-21 02:00S 22°54' W 043°12'0 0.0
2017-May-21 01:30S 22°54' W 043°12'0 0.0
2017-May-21 01:00S 22°54' W 043°12'0 0.0
2017-May-21 00:30S 22°54' W 043°12'0 0.0
2017-May-21 00:00S 22°54' W 043°12'0 0.0
2017-May-20 23:30S 22°54' W 043°12'0 0.0
2017-May-20 23:00S 22°54' W 043°12'0 0.0
2017-May-20 22:30S 22°54' W 043°12'0 0.0
2017-May-20 21:54S 22°54' W 043°12'0 0.0
2017-May-20 21:30S 22°54' W 043°12'0 0.0
2017-May-20 21:00S 22°54' W 043°12'0 0.0
2017-May-20 20:30S 22°54' W 043°12'0 0.0
2017-May-20 20:00S 22°54' W 043°12'0 0.0
2017-May-20 19:30S 22°54' W 043°12'0 0.0
2017-May-20 18:54S 22°54' W 043°12'0 0.0
2017-May-20 18:30S 22°54' W 043°12'0 0.0
2017-May-20 18:00S 22°54' W 043°12'0 0.0
2017-May-20 17:24S 22°54' W 043°12'0 0.0
2017-May-20 17:00S 22°54' W 043°12'0 0.0
2017-May-20 16:30S 22°54' W 043°12'0 0.0
2017-May-20 16:00S 22°54' W 043°12'0 0.0
2017-May-20 15:30S 22°54' W 043°12'0 0.0
2017-May-20 14:54S 22°54' W 043°12'0 0.0
2017-May-20 14:30S 22°54' W 043°12'0 0.0
2017-May-20 13:24S 22°54' W 043°12'0 0.0
2017-May-20 13:00S 22°54' W 043°12'0 0.0
2017-May-20 12:30S 22°54' W 043°12'0 0.0
2017-May-20 11:54S 22°54' W 043°12'0 0.0
2017-May-20 11:30S 22°54' W 043°12'0 0.0
2017-May-20 11:00S 22°54' W 043°12'0 0.0
2017-May-20 10:30S 22°54' W 043°12'0 0.0
2017-May-20 10:00S 22°54' W 043°12'0 0.0
2017-May-20 09:30S 22°54' W 043°12'0 0.0
2017-May-20 09:00S 22°54' W 043°12'0 0.0
2017-May-20 08:30S 22°54' W 043°12'0 0.0
2017-May-20 08:00S 22°54' W 043°12'0 0.0
2017-May-20 07:30S 22°54' W 043°12'0 0.0
2017-May-20 07:00S 22°54' W 043°12'0 0.0
2017-May-20 06:30S 22°54' W 043°12'0 0.0
2017-May-20 06:00S 22°54' W 043°12'0 0.0
2017-May-20 05:30S 22°54' W 043°12'0 0.0
2017-May-20 05:00S 22°54' W 043°12'0 0.0
2017-May-20 04:24S 22°54' W 043°12'0 0.0
2017-May-20 03:54S 22°54' W 043°12'0 0.0
2017-May-20 03:30S 22°54' W 043°12'0 0.0
2017-May-20 03:00S 22°54' W 043°12'0 0.0
2017-May-20 02:30S 22°54' W 043°12'0 0.0
2017-May-20 02:00S 22°54' W 043°12'0 0.0
2017-May-20 01:30S 22°54' W 043°12'0 0.0
2017-May-20 01:00S 22°54' W 043°12'0 0.0
2017-May-20 00:30S 22°54' W 043°12'0 0.0
2017-May-20 00:00S 22°54' W 043°12'0 0.0
2017-May-19 23:30S 22°54' W 043°12'0 0.0
2017-May-19 23:00S 22°54' W 043°12'0 0.0
2017-May-19 22:30S 22°54' W 043°12'0 0.0
2017-May-19 22:00S 22°54' W 043°12'0 0.0
2017-May-19 21:30S 22°54' W 043°12'0 0.0
2017-May-19 21:00S 22°54' W 043°12'0 0.0
2017-May-19 20:30S 22°54' W 043°12'0 0.0
2017-May-19 20:00S 22°54' W 043°12'0 0.0
2017-May-19 19:30S 22°54' W 043°12'0 0.0
2017-May-19 19:00S 22°54' W 043°12'0 0.0
2017-May-19 18:30S 22°54' W 043°12'0 0.0
2017-May-19 18:00S 22°54' W 043°12'0 0.0
2017-May-19 17:30S 22°54' W 043°12'0 0.0
2017-May-19 17:00S 22°54' W 043°12'0 0.0
2017-May-19 16:24S 22°54' W 043°12'0 0.0
2017-May-19 16:00S 22°54' W 043°12'0 0.0
2017-May-19 15:30S 22°54' W 043°12'0 0.0
2017-May-19 15:00S 22°54' W 043°12'0 0.0
2017-May-19 14:00S 22°54' W 043°12'0 0.0
2017-May-19 13:30S 22°54' W 043°12'0 0.0
2017-May-19 12:48S 22°54' W 043°12'0 0.0
2017-May-19 12:30S 22°54' W 043°12'0 0.0
2017-May-19 12:00S 22°54' W 043°12'0 0.0
2017-May-19 11:30S 22°54' W 043°12'0 0.0
2017-May-19 11:00S 22°54' W 043°12'0 0.0
2017-May-19 10:30S 22°54' W 043°12'0 0.0
2017-May-19 10:00S 22°54' W 043°12'0 0.0
2017-May-19 09:30S 22°54' W 043°12'0 0.0
2017-May-19 09:00S 22°54' W 043°12'0 0.0
2017-May-19 08:30S 22°54' W 043°12'0 0.0
2017-May-19 08:00S 22°54' W 043°12'0 0.0
2017-May-19 07:30S 22°54' W 043°12'0 0.0
2017-May-19 07:00S 22°54' W 043°12'0 0.0
2017-May-19 06:24S 22°54' W 043°12'0 0.0
2017-May-19 06:00S 22°54' W 043°12'0 0.0
2017-May-19 05:30S 22°54' W 043°12'0 0.0
2017-May-19 05:00S 22°54' W 043°12'0 0.0
2017-May-19 04:30S 22°54' W 043°12'0 0.0
2017-May-19 03:48S 22°54' W 043°12'0 0.0
2017-May-19 03:30S 22°54' W 043°12'0 0.0
2017-May-19 03:00S 22°54' W 043°12'0 0.0
2017-May-19 02:30S 22°54' W 043°12'0 0.0
2017-May-19 02:00S 22°54' W 043°12'0 0.0
2017-May-19 01:30S 22°54' W 043°12'0 0.0
2017-May-19 01:00S 22°54' W 043°12'0 0.0
2017-May-19 00:30S 22°54' W 043°12'0 0.0
2017-May-19 00:00S 22°54' W 043°12'0 0.0
2017-May-18 23:30S 22°54' W 043°12'0 0.0
2017-May-18 23:00S 22°54' W 043°12'0 0.0
2017-May-18 22:30S 22°54' W 043°12'0 0.0
2017-May-18 22:00S 22°54' W 043°12'0 0.0
2017-May-18 21:30S 22°54' W 043°12'0 0.0
2017-May-18 21:00S 22°54' W 043°12'0 0.0
2017-May-18 20:30S 22°54' W 043°12'0 0.0
2017-May-18 20:00S 22°54' W 043°12'0 0.0
2017-May-18 19:30S 22°54' W 043°12'0 0.0
2017-May-18 19:00S 22°54' W 043°12'0 0.0
2017-May-18 18:30S 22°54' W 043°12'0 0.0
2017-May-18 18:00S 22°54' W 043°12'0 0.0
2017-May-18 17:30S 22°54' W 043°12'0 0.0
2017-May-18 16:54S 22°54' W 043°12'0 0.0
2017-May-18 16:30S 22°54' W 043°12'0 0.0
2017-May-18 16:00S 22°54' W 043°12'0 0.0
2017-May-18 15:30S 22°54' W 043°12'0 0.0
2017-May-18 15:00S 22°54' W 043°12'0 0.0
2017-May-18 14:00S 22°54' W 043°12'0 0.0
2017-May-18 13:30S 22°54' W 043°12'0 0.0
2017-May-18 13:00S 22°54' W 043°12'0 0.0
2017-May-18 12:30S 22°54' W 043°12'0 0.0
2017-May-18 12:00S 22°54' W 043°12'0 0.0
2017-May-18 11:30S 22°54' W 043°12'0 0.0
2017-May-18 11:00S 22°54' W 043°12'0 0.0
2017-May-18 10:30S 22°54' W 043°12'0 0.0
2017-May-18 10:00S 22°54' W 043°12'0 0.0
2017-May-18 09:30S 22°54' W 043°12'0 0.0
2017-May-18 09:00S 22°54' W 043°12'0 0.0
2017-May-18 08:30S 22°54' W 043°12'0 0.0
2017-May-18 08:00S 22°54' W 043°12'0 0.0
2017-May-18 07:30S 22°54' W 043°12'0 0.0
2017-May-18 06:48S 22°54' W 043°12'0 0.0
2017-May-18 06:30S 22°54' W 043°12'0 0.0
2017-May-18 06:00S 22°54' W 043°12'0 0.0
2017-May-18 05:30S 22°54' W 043°12'0 0.0
2017-May-18 04:54S 22°54' W 043°12'0 0.0
2017-May-18 04:30S 22°54' W 043°12'0 0.0
2017-May-18 04:00S 22°54' W 043°12'0 0.0
2017-May-18 03:30S 22°54' W 043°12'0 0.0
2017-May-18 03:00S 22°54' W 043°12'0 0.0
2017-May-18 02:30S 22°54' W 043°12'0 0.0
2017-May-18 02:00S 22°54' W 043°12'0 0.0
2017-May-18 01:30S 22°54' W 043°12'0 0.0
2017-May-18 01:00S 22°54' W 043°12'0 0.0
2017-May-18 00:30S 22°54' W 043°12'0 0.0
2017-May-18 00:00S 22°54' W 043°12'0 0.0
2017-May-17 23:30S 22°54' W 043°12'0 0.0
2017-May-17 23:00S 22°54' W 043°12'0 0.0
2017-May-17 22:18S 22°54' W 043°12'0 0.0
2017-May-17 22:00S 22°54' W 043°12'0 0.0
2017-May-17 21:30S 22°54' W 043°12'0 0.0
2017-May-17 21:00S 22°54' W 043°12'0 0.0
2017-May-17 20:24S 22°54' W 043°12'0 0.0
2017-May-17 20:00S 22°54' W 043°12'0 0.0
2017-May-17 19:30S 22°54' W 043°12'0 0.0
2017-May-17 19:00S 22°54' W 043°12'0 0.0
2017-May-17 18:24S 22°54' W 043°12'0 0.0
2017-May-17 18:00S 22°54' W 043°12'0 0.0
2017-May-17 17:30S 22°54' W 043°12'0 0.0
2017-May-17 17:00S 22°54' W 043°12'0 0.0
2017-May-17 16:30S 22°54' W 043°12'0 0.0
2017-May-17 16:00S 22°54' W 043°12'0 0.0
2017-May-17 15:30S 22°54' W 043°12'0 0.0
2017-May-17 14:54S 22°54' W 043°12'0 0.0
2017-May-17 14:30S 22°54' W 043°12'0 0.0
2017-May-17 13:30S 22°54' W 043°12'0 0.0
2017-May-17 13:00S 22°54' W 043°12'0 0.0
2017-May-17 12:30S 22°54' W 043°12'0 0.0
2017-May-17 12:00S 22°54' W 043°12'0 0.0
2017-May-17 11:30S 22°54' W 043°12'0 0.0
2017-May-17 11:00S 22°54' W 043°12'0 0.0
2017-May-17 10:18S 22°54' W 043°12'0 0.0
2017-May-17 10:00S 22°54' W 043°12'0 0.0
2017-May-17 09:30S 22°54' W 043°12'0 0.0
2017-May-17 09:00S 22°54' W 043°12'0 0.0
2017-May-17 08:30S 22°54' W 043°12'0 0.0
2017-May-17 08:00S 22°54' W 043°12'0 0.0
2017-May-17 07:30S 22°54' W 043°12'0 0.0
2017-May-17 07:00S 22°54' W 043°12'0 0.0
2017-May-17 06:30S 22°54' W 043°12'0 0.0
2017-May-17 06:00S 22°54' W 043°12'0 0.0
2017-May-17 05:24S 22°54' W 043°12'0 0.0
2017-May-17 05:00S 22°54' W 043°12'0 0.0
2017-May-17 04:30S 22°54' W 043°12'0 0.0
2017-May-17 04:00S 22°54' W 043°12'0 0.0
2017-May-17 03:24S 22°54' W 043°12'0 0.0
2017-May-17 02:54S 22°54' W 043°12'0 0.0
2017-May-17 02:30S 22°54' W 043°12'0 0.0
2017-May-17 02:00S 22°54' W 043°12'0 0.0
2017-May-17 01:30S 22°54' W 043°12'0 0.0
2017-May-17 01:00S 22°54' W 043°12'0 0.0
2017-May-17 00:30S 22°54' W 043°12'0 0.0
2017-May-17 00:00S 22°54' W 043°12'0 0.0
2017-May-16 23:24S 22°54' W 043°12'0 0.0
2017-May-16 23:00S 22°54' W 043°12'0 0.0
2017-May-16 22:30S 22°54' W 043°12'0 0.0
2017-May-16 22:00S 22°54' W 043°12'0 0.0
2017-May-16 21:30S 22°54' W 043°12'0 0.0
2017-May-16 21:00S 22°54' W 043°12'0 0.0
2017-May-16 20:30S 22°54' W 043°12'0 0.0
2017-May-16 20:00S 22°54' W 043°12'0 0.0
2017-May-16 19:30S 22°54' W 043°12'0 0.0
2017-May-16 18:54S 22°54' W 043°12'0 0.0
2017-May-16 18:24S 22°54' W 043°12'0 0.0
2017-May-16 18:00S 22°54' W 043°12'0 0.0
2017-May-16 17:30S 22°54' W 043°12'0 0.0
2017-May-16 17:00S 22°54' W 043°12'0 0.0
2017-May-16 16:30S 22°54' W 043°12'0 0.0
2017-May-16 16:00S 22°54' W 043°12'0 0.0
2017-May-16 15:30S 22°54' W 043°12'0 0.0
2017-May-16 15:00S 22°54' W 043°12'0 0.0
2017-May-16 14:30S 22°54' W 043°12'0 0.0
2017-May-16 13:30S 22°54' W 043°12'0 0.0
2017-May-16 13:00S 22°54' W 043°12'0 0.0
2017-May-16 12:24S 22°54' W 043°12'0 0.0
2017-May-16 12:00S 22°54' W 043°12'0 0.0
2017-May-16 11:30S 22°54' W 043°12'0 0.0
2017-May-16 11:00S 22°54' W 043°12'0 0.0
2017-May-16 10:30S 22°54' W 043°12'0 0.0
2017-May-16 10:00S 22°54' W 043°12'0 0.0
2017-May-16 09:30S 22°54' W 043°12'0 0.0
2017-May-16 09:00S 22°54' W 043°12'0 0.0
2017-May-16 08:24S 22°54' W 043°12'0 0.0
2017-May-16 08:00S 22°54' W 043°12'0 0.0
2017-May-16 07:30S 22°54' W 043°12'0 0.0
2017-May-16 07:00S 22°54' W 043°12'0 0.0
2017-May-16 06:30S 22°54' W 043°12'0 0.0
2017-May-16 05:54S 22°54' W 043°12'0 0.0
2017-May-16 05:30S 22°54' W 043°12'0 0.0
2017-May-16 05:00S 22°54' W 043°12'0 0.0
2017-May-16 04:30S 22°54' W 043°12'0 0.0
2017-May-16 04:00S 22°54' W 043°12'0 0.0
2017-May-16 03:30S 22°54' W 043°12'0 0.0
2017-May-16 03:00S 22°54' W 043°12'0 0.0
2017-May-16 02:30S 22°54' W 043°12'0 0.0
2017-May-16 02:00S 22°54' W 043°12'0 0.0
2017-May-16 01:30S 22°54' W 043°12'0 0.0
2017-May-16 01:00S 22°54' W 043°12'0 0.0
2017-May-16 00:24S 22°54' W 043°12'0 0.0
2017-May-16 00:00S 22°54' W 043°12'0 0.0
2017-May-15 23:30S 22°54' W 043°12'0 0.0
2017-May-15 23:00S 22°54' W 043°12'0 0.0
2017-May-15 22:30S 22°54' W 043°12'0 0.0
2017-May-15 22:00S 22°54' W 043°12'0 0.0
2017-May-15 21:30S 22°54' W 043°12'0 0.0
2017-May-15 21:00S 22°54' W 043°12'0 0.0
2017-May-15 20:30S 22°54' W 043°12'0 0.0
2017-May-15 20:00S 22°54' W 043°12'0 0.0
2017-May-15 19:30S 22°54' W 043°12'0 0.0
2017-May-15 19:00S 22°54' W 043°12'0 0.0
2017-May-15 18:24S 22°54' W 043°12'0 0.0
2017-May-15 18:00S 22°54' W 043°12'0 0.0
2017-May-15 17:30S 22°54' W 043°12'0 0.0
2017-May-15 17:00S 22°54' W 043°12'0 0.0
2017-May-15 16:30S 22°54' W 043°12'0 0.0
2017-May-15 16:00S 22°54' W 043°12'0 0.0
2017-May-15 15:30S 22°54' W 043°12'0 0.0
2017-May-15 14:54S 22°54' W 043°12'0 0.0
2017-May-15 14:30S 22°54' W 043°12'0 0.0
2017-May-15 13:30S 22°54' W 043°12'0 0.0
2017-May-15 13:00S 22°54' W 043°12'0 0.0
2017-May-15 12:24S 22°54' W 043°12'0 0.0
2017-May-15 11:54S 22°54' W 043°12'0 0.0
2017-May-15 11:30S 22°54' W 043°12'0 0.0
2017-May-15 11:00S 22°54' W 043°12'0 0.0
2017-May-15 10:30S 22°54' W 043°12'0 0.0
2017-May-15 10:00S 22°54' W 043°12'0 0.0
2017-May-15 09:30S 22°54' W 043°12'0 0.0
2017-May-15 09:00S 22°54' W 043°12'0 0.0
2017-May-15 08:30S 22°54' W 043°12'0 0.0
2017-May-15 08:00S 22°54' W 043°12'0 0.0
2017-May-15 07:30S 22°54' W 043°12'0 0.0
2017-May-15 07:00S 22°54' W 043°12'0 0.2
2017-May-15 06:30S 22°53' W 043°12'1 2.1
2017-May-15 06:00S 22°53' W 043°10'4 8.4
2017-May-15 05:30S 22°57' W 043°08'2 4.5
2017-May-15 05:00S 22°59' W 043°07'1 1.6
2017-May-15 04:30S 22°60' W 043°07'1 2.2
2017-May-15 04:00S 23°01' W 043°07'1 0.3
2017-May-14 23:25S 23°02' W 043°08'0 0.0
2017-May-14 22:55S 23°02' W 043°08'0 0.0
2017-May-14 18:49S 23°02' W 043°08'0 0.1
2017-May-14 18:25S 23°02' W 043°08'0 0.0
2017-May-14 17:55S 23°02' W 043°08'0 0.1
2017-May-14 17:13S 23°02' W 043°08'0 0.1
2017-May-14 16:55S 23°02' W 043°08'0 0.0
2017-May-14 16:25S 23°02' W 043°08'0 0.2
2017-May-14 15:49S 23°02' W 043°08'0 0.0
2017-May-14 13:13S 23°02' W 043°08'0 0.1
2017-May-14 12:49S 23°02' W 043°08'0 0.0
2017-May-14 12:13S 23°02' W 043°08'0 0.0
2017-May-14 11:55S 23°02' W 043°08'0 0.0
2017-May-14 11:25S 23°02' W 043°08'0 0.0
2017-May-14 10:55S 23°02' W 043°08'0 0.0
2017-May-14 09:31S 23°02' W 043°08'0 0.2
2017-May-14 09:25S 23°02' W 043°08'0 0.0
2017-May-14 07:49S 23°02' W 043°08'0 0.1
2017-May-14 07:13S 23°02' W 043°08'0 0.0
2017-May-14 06:55S 23°02' W 043°08'0 0.0
2017-May-14 06:19S 23°02' W 043°08'0 0.0
2017-May-14 05:55S 23°02' W 043°08'0 0.0
2017-May-14 05:25S 23°02' W 043°08'0 0.1
2017-May-14 04:55S 23°02' W 043°08'0 0.0
2017-May-14 04:25S 23°02' W 043°08'0 0.0
2017-May-14 03:43S 23°02' W 043°08'0 0.0
2017-May-14 03:25S 23°02' W 043°08'0 0.1
2017-May-14 02:55S 23°02' W 043°08'0 0.1
2017-May-14 02:19S 23°02' W 043°08'0 0.0
2017-May-14 01:55S 23°02' W 043°08'0 0.0
2017-May-14 01:13S 23°02' W 043°08'0 0.1
2017-May-14 00:55S 23°02' W 043°08'0 0.0
2017-May-14 00:25S 23°02' W 043°08'0 0.1
2017-May-13 23:55S 23°02' W 043°08'0 0.0
2017-May-13 23:25S 23°02' W 043°08'0 0.0
2017-May-13 22:55S 23°02' W 043°08'0 0.0
2017-May-13 22:19S 23°02' W 043°08'0 0.0
2017-May-13 21:55S 23°02' W 043°08'0 0.0
2017-May-13 21:25S 23°02' W 043°08'0 0.0
2017-May-13 20:49S 23°02' W 043°08'0 0.0
2017-May-13 20:19S 23°02' W 043°08'0 0.0
2017-May-13 19:55S 23°02' W 043°08'0 0.0
2017-May-13 19:25S 23°02' W 043°08'0 0.0
2017-May-13 18:55S 23°02' W 043°08'0 0.0
2017-May-13 18:25S 23°02' W 043°08'0 0.0
2017-May-13 17:43S 23°02' W 043°08'0 0.1
2017-May-13 17:25S 23°02' W 043°08'0 0.0
2017-May-13 16:55S 23°02' W 043°08'0 0.0
2017-May-13 16:25S 23°02' W 043°08'0 0.0
2017-May-13 15:55S 23°02' W 043°08'0 0.1
2017-May-13 15:25S 23°02' W 043°08'0 0.0
2017-May-13 14:37S 23°02' W 043°08'0 0.1
2017-May-13 14:25S 23°02' W 043°08'0 0.0
2017-May-13 13:07S 23°02' W 043°08'0 0.1
2017-May-13 12:49S 23°02' W 043°08'0 0.0
2017-May-13 12:25S 23°02' W 043°08'0 0.0
2017-May-13 11:55S 23°02' W 043°08'0 0.1
2017-May-13 11:25S 23°02' W 043°08'0 0.1
2017-May-13 10:19S 23°02' W 043°08'0 0.1
2017-May-13 09:55S 23°02' W 043°08'0 0.0
2017-May-13 09:25S 23°02' W 043°08'0 0.0
2017-May-13 08:55S 23°02' W 043°08'0 0.0
2017-May-13 08:25S 23°02' W 043°08'0 0.0
2017-May-13 07:55S 23°02' W 043°08'0 0.0
2017-May-13 07:25S 23°02' W 043°08'0 0.0
2017-May-13 06:55S 23°02' W 043°08'0 0.0
2017-May-13 06:07S 23°02' W 043°08'0 0.0
2017-May-13 05:55S 23°02' W 043°08'0 0.0
2017-May-13 05:25S 23°02' W 043°08'0 0.0
2017-May-13 04:55S 23°02' W 043°08'0 0.0
2017-May-13 04:25S 23°02' W 043°08'0 0.0
2017-May-13 03:55S 23°02' W 043°08'0 0.0
2017-May-13 03:25S 23°02' W 043°08'0 0.0
2017-May-13 02:55S 23°02' W 043°08'0 0.0
2017-May-13 02:19S 23°02' W 043°08'0 0.1
2017-May-13 01:55S 23°02' W 043°08'0 0.1
2017-May-13 01:25S 23°02' W 043°08'0 0.0
2017-May-13 00:55S 23°02' W 043°08'0 0.0
2017-May-13 00:25S 23°02' W 043°08'0 0.1
2017-May-12 23:49S 23°02' W 043°08'0 0.1
2017-May-12 23:25S 23°02' W 043°08'0 0.0
2017-May-12 22:55S 23°02' W 043°08'0 0.0
2017-May-12 22:19S 23°02' W 043°08'0 0.0
2017-May-12 21:55S 23°02' W 043°08'0 0.0
2017-May-12 21:07S 23°02' W 043°08'0 0.0
2017-May-12 20:43S 23°02' W 043°08'0 0.0
2017-May-12 20:13S 23°02' W 043°08'0 0.0
2017-May-12 19:49S 23°02' W 043°08'0 0.0
2017-May-12 19:19S 23°02' W 043°08'0 0.0
2017-May-12 18:31S 23°02' W 043°08'0 0.0
2017-May-12 18:25S 23°02' W 043°08'0 0.0
2017-May-12 17:55S 23°02' W 043°08'  
Track history (hours):
 
Tides and Currents Weather Stations Pressure Air Temp Water Temp Dewpoint Dewpoint Depression Visibility Wind Speed Wind Dir Waves Ship Positions

Pacific Journey

Last reported at 2017-May-22 17:15 UTC. Time now 2017-May-26 09:28 UTC.
Position S 23°31' W 040°34'.

Length 180 m; draft 10.2 m.

Type: Cargo ship. MMSI: 371467000.

Date/timePositionNaut miles runAvg speedWind from/ knotsBaromVisibWave heightAir tempDewpointWater temp
2017-May-22 17:15S 23°31' W 040°34'2 8.6
2017-May-22 16:59S 23°31' W 040°37'5 8.7
2017-May-22 16:24S 23°32' W 040°42'4 8.7
2017-May-22 15:57S 23°33' W 040°46'4 8.6
2017-May-22 15:30S 23°34' W 040°50'5 8.5
2017-May-22 14:58S 23°35' W 040°55'8 8.2
2017-May-22 14:00S 23°36' W 041°04'20 8.0
2017-May-22 11:25S 23°39' W 041°26'74 8.5
2017-May-22 02:39S 23°12' W 042°41'2 7.8
2017-May-22 02:26S 23°11' W 042°43'3 7.6
2017-May-22 02:00S 23°10' W 042°46'4 7.9
2017-May-22 01:30S 23°08' W 042°50'4 8.2
2017-May-22 01:00S 23°07' W 042°54'4 8.7
2017-May-22 00:30S 23°05' W 042°58'4 8.8
2017-May-22 00:00S 23°04' W 043°03'4 8.9
2017-May-21 23:30S 23°02' W 043°07'4 7.5
2017-May-21 23:00S 22°58' W 043°08'4 7.2
2017-May-21 22:30S 22°54' W 043°09'3 5.4
2017-May-21 22:00S 22°54' W 043°12'0 0.0
2017-May-21 21:30S 22°54' W 043°12'0 0.0
2017-May-21 21:00S 22°54' W 043°12'0 0.0
2017-May-21 20:30S 22°54' W 043°12'0 0.0
2017-May-21 20:00S 22°54' W 043°12'0 0.0
2017-May-21 19:18S 22°54' W 043°12'0 0.0
2017-May-21 19:00S 22°54' W 043°12'0 0.0
2017-May-21 18:30S 22°54' W 043°12'0 0.0
2017-May-21 17:54S 22°54' W 043°12'0 0.0
2017-May-21 17:30S 22°54' W 043°12'0 0.0
2017-May-21 17:00S 22°54' W 043°12'0 0.0
2017-May-21 15:00S 22°54' W 043°12'0 0.0
2017-May-21 14:00S 22°54' W 043°12'0 0.0
2017-May-21 13:30S 22°54' W 043°12'0 0.0
2017-May-21 13:00S 22°54' W 043°12'0 0.0
2017-May-21 12:30S 22°54' W 043°12'0 0.0
2017-May-21 11:48S 22°54' W 043°12'0 0.0
2017-May-21 11:30S 22°54' W 043°12'0 0.0
2017-May-21 10:54S 22°54' W 043°12'0 0.0
2017-May-21 10:30S 22°54' W 043°12'0 0.0
2017-May-21 10:00S 22°54' W 043°12'0 0.0
2017-May-21 09:30S 22°54' W 043°12'0 0.0
2017-May-21 09:00S 22°54' W 043°12'0 0.0
2017-May-21 08:30S 22°54' W 043°12'0 0.0
2017-May-21 07:48S 22°54' W 043°12'0 0.0
2017-May-21 07:30S 22°54' W 043°12'0 0.0
2017-May-21 06:54S 22°54' W 043°12'0 0.0
2017-May-21 06:30S 22°54' W 043°12'0 0.0
2017-May-21 05:42S 22°54' W 043°12'0 0.0
2017-May-21 05:30S 22°54' W 043°12'0 0.0
2017-May-21 05:00S 22°54' W 043°12'0 0.0
2017-May-21 04:30S 22°54' W 043°12'0 0.0
2017-May-21 03:54S 22°54' W 043°12'0 0.0
2017-May-21 03:24S 22°54' W 043°12'0 0.0
2017-May-21 03:00S 22°54' W 043°12'0 0.0
2017-May-21 02:24S 22°54' W 043°12'0 0.0
2017-May-21 02:00S 22°54' W 043°12'0 0.0
2017-May-21 01:30S 22°54' W 043°12'0 0.0
2017-May-21 01:00S 22°54' W 043°12'0 0.0
2017-May-21 00:30S 22°54' W 043°12'0 0.0
2017-May-21 00:00S 22°54' W 043°12'0 0.0
2017-May-20 23:30S 22°54' W 043°12'0 0.0
2017-May-20 23:00S 22°54' W 043°12'0 0.0
2017-May-20 22:30S 22°54' W 043°12'0 0.0
2017-May-20 21:54S 22°54' W 043°12'0 0.0
2017-May-20 21:30S 22°54' W 043°12'0 0.0
2017-May-20 21:00S 22°54' W 043°12'0 0.0
2017-May-20 20:30S 22°54' W 043°12'0 0.0
2017-May-20 20:00S 22°54' W 043°12'0 0.0
2017-May-20 19:30S 22°54' W 043°12'0 0.0
2017-May-20 18:54S 22°54' W 043°12'0 0.0
2017-May-20 18:30S 22°54' W 043°12'0 0.0
2017-May-20 18:00S 22°54' W 043°12'0 0.0
2017-May-20 17:24S 22°54' W 043°12'0 0.0
2017-May-20 17:00S 22°54' W 043°12'0 0.0
2017-May-20 16:30S 22°54' W 043°12'0 0.0
2017-May-20 16:00S 22°54' W 043°12'0 0.0
2017-May-20 15:30S 22°54' W 043°12'0 0.0
2017-May-20 14:54S 22°54' W 043°12'0 0.0
2017-May-20 14:30S 22°54' W 043°12'0 0.0
2017-May-20 13:24S 22°54' W 043°12'0 0.0
2017-May-20 13:00S 22°54' W 043°12'0 0.0
2017-May-20 12:30S 22°54' W 043°12'0 0.0
2017-May-20 11:54S 22°54' W 043°12'0 0.0
2017-May-20 11:30S 22°54' W 043°12'0 0.0
2017-May-20 11:00S 22°54' W 043°12'0 0.0
2017-May-20 10:30S 22°54' W 043°12'0 0.0
2017-May-20 10:00S 22°54' W 043°12'0 0.0
2017-May-20 09:30S 22°54' W 043°12'0 0.0
2017-May-20 09:00S 22°54' W 043°12'0 0.0
2017-May-20 08:30S 22°54' W 043°12'0 0.0
2017-May-20 08:00S 22°54' W 043°12'0 0.0
2017-May-20 07:30S 22°54' W 043°12'0 0.0
2017-May-20 07:00S 22°54' W 043°12'0 0.0
2017-May-20 06:30S 22°54' W 043°12'0 0.0
2017-May-20 06:00S 22°54' W 043°12'0 0.0
2017-May-20 05:30S 22°54' W 043°12'0 0.0
2017-May-20 05:00S 22°54' W 043°12'0 0.0
2017-May-20 04:24S 22°54' W 043°12'0 0.0
2017-May-20 03:54S 22°54' W 043°12'0 0.0
2017-May-20 03:30S 22°54' W 043°12'0 0.0
2017-May-20 03:00S 22°54' W 043°12'0 0.0
2017-May-20 02:30S 22°54' W 043°12'0 0.0
2017-May-20 02:00S 22°54' W 043°12'0 0.0
2017-May-20 01:30S 22°54' W 043°12'0 0.0
2017-May-20 01:00S 22°54' W 043°12'0 0.0
2017-May-20 00:30S 22°54' W 043°12'0 0.0
2017-May-20 00:00S 22°54' W 043°12'0 0.0
2017-May-19 23:30S 22°54' W 043°12'0 0.0
2017-May-19 23:00S 22°54' W 043°12'0 0.0
2017-May-19 22:30S 22°54' W 043°12'0 0.0
2017-May-19 22:00S 22°54' W 043°12'0 0.0
2017-May-19 21:30S 22°54' W 043°12'0 0.0
2017-May-19 21:00S 22°54' W 043°12'0 0.0
2017-May-19 20:30S 22°54' W 043°12'0 0.0
2017-May-19 20:00S 22°54' W 043°12'0 0.0
2017-May-19 19:30S 22°54' W 043°12'0 0.0
2017-May-19 19:00S 22°54' W 043°12'0 0.0
2017-May-19 18:30S 22°54' W 043°12'0 0.0
2017-May-19 18:00S 22°54' W 043°12'0 0.0
2017-May-19 17:30S 22°54' W 043°12'0 0.0
2017-May-19 17:00S 22°54' W 043°12'0 0.0
2017-May-19 16:24S 22°54' W 043°12'0 0.0
2017-May-19 16:00S 22°54' W 043°12'0 0.0
2017-May-19 15:30S 22°54' W 043°12'0 0.0
2017-May-19 15:00S 22°54' W 043°12'0 0.0
2017-May-19 14:00S 22°54' W 043°12'0 0.0
2017-May-19 13:30S 22°54' W 043°12'0 0.0
2017-May-19 12:48S 22°54' W 043°12'0 0.0
2017-May-19 12:30S 22°54' W 043°12'0 0.0
2017-May-19 12:00S 22°54' W 043°12'0 0.0
2017-May-19 11:30S 22°54' W 043°12'0 0.0
2017-May-19 11:00S 22°54' W 043°12'0 0.0
2017-May-19 10:30S 22°54' W 043°12'0 0.0
2017-May-19 10:00S 22°54' W 043°12'0 0.0
2017-May-19 09:30S 22°54' W 043°12'0 0.0
2017-May-19 09:00S 22°54' W 043°12'0 0.0
2017-May-19 08:30S 22°54' W 043°12'0 0.0
2017-May-19 08:00S 22°54' W 043°12'0 0.0
2017-May-19 07:30S 22°54' W 043°12'0 0.0
2017-May-19 07:00S 22°54' W 043°12'0 0.0
2017-May-19 06:24S 22°54' W 043°12'0 0.0
2017-May-19 06:00S 22°54' W 043°12'0 0.0
2017-May-19 05:30S 22°54' W 043°12'0 0.0
2017-May-19 05:00S 22°54' W 043°12'0 0.0
2017-May-19 04:30S 22°54' W 043°12'0 0.0
2017-May-19 03:48S 22°54' W 043°12'0 0.0
2017-May-19 03:30S 22°54' W 043°12'0 0.0
2017-May-19 03:00S 22°54' W 043°12'0 0.0
2017-May-19 02:30S 22°54' W 043°12'0 0.0
2017-May-19 02:00S 22°54' W 043°12'0 0.0
2017-May-19 01:30S 22°54' W 043°12'0 0.0
2017-May-19 01:00S 22°54' W 043°12'0 0.0
2017-May-19 00:30S 22°54' W 043°12'0 0.0
2017-May-19 00:00S 22°54' W 043°12'0 0.0
2017-May-18 23:30S 22°54' W 043°12'0 0.0
2017-May-18 23:00S 22°54' W 043°12'0 0.0
2017-May-18 22:30S 22°54' W 043°12'0 0.0
2017-May-18 22:00S 22°54' W 043°12'0 0.0
2017-May-18 21:30S 22°54' W 043°12'0 0.0
2017-May-18 21:00S 22°54' W 043°12'0 0.0
2017-May-18 20:30S 22°54' W 043°12'0 0.0
2017-May-18 20:00S 22°54' W 043°12'0 0.0
2017-May-18 19:30S 22°54' W 043°12'0 0.0
2017-May-18 19:00S 22°54' W 043°12'0 0.0
2017-May-18 18:30S 22°54' W 043°12'0 0.0
2017-May-18 18:00S 22°54' W 043°12'0 0.0
2017-May-18 17:30S 22°54' W 043°12'0 0.0
2017-May-18 16:54S 22°54' W 043°12'0 0.0
2017-May-18 16:30S 22°54' W 043°12'0 0.0
2017-May-18 16:00S 22°54' W 043°12'0 0.0
2017-May-18 15:30S 22°54' W 043°12'0 0.0
2017-May-18 15:00S 22°54' W 043°12'0 0.0
2017-May-18 14:00S 22°54' W 043°12'0 0.0
2017-May-18 13:30S 22°54' W 043°12'0 0.0
2017-May-18 13:00S 22°54' W 043°12'0 0.0
2017-May-18 12:30S 22°54' W 043°12'0 0.0
2017-May-18 12:00S 22°54' W 043°12'0 0.0
2017-May-18 11:30S 22°54' W 043°12'0 0.0
2017-May-18 11:00S 22°54' W 043°12'0 0.0
2017-May-18 10:30S 22°54' W 043°12'0 0.0
2017-May-18 10:00S 22°54' W 043°12'0 0.0
2017-May-18 09:30S 22°54' W 043°12'0 0.0
2017-May-18 09:00S 22°54' W 043°12'0 0.0
2017-May-18 08:30S 22°54' W 043°12'0 0.0
2017-May-18 08:00S 22°54' W 043°12'0 0.0
2017-May-18 07:30S 22°54' W 043°12'0 0.0
2017-May-18 06:48S 22°54' W 043°12'0 0.0
2017-May-18 06:30S 22°54' W 043°12'0 0.0
2017-May-18 06:00S 22°54' W 043°12'0 0.0
2017-May-18 05:30S 22°54' W 043°12'0 0.0
2017-May-18 04:54S 22°54' W 043°12'0 0.0
2017-May-18 04:30S 22°54' W 043°12'0 0.0
2017-May-18 04:00S 22°54' W 043°12'0 0.0
2017-May-18 03:30S 22°54' W 043°12'0 0.0
2017-May-18 03:00S 22°54' W 043°12'0 0.0
2017-May-18 02:30S 22°54' W 043°12'0 0.0
2017-May-18 02:00S 22°54' W 043°12'0 0.0
2017-May-18 01:30S 22°54' W 043°12'0 0.0
2017-May-18 01:00S 22°54' W 043°12'0 0.0
2017-May-18 00:30S 22°54' W 043°12'0 0.0
2017-May-18 00:00S 22°54' W 043°12'0 0.0
2017-May-17 23:30S 22°54' W 043°12'0 0.0
2017-May-17 23:00S 22°54' W 043°12'0 0.0
2017-May-17 22:18S 22°54' W 043°12'0 0.0
2017-May-17 22:00S 22°54' W 043°12'0 0.0
2017-May-17 21:30S 22°54' W 043°12'0 0.0
2017-May-17 21:00S 22°54' W 043°12'0 0.0
2017-May-17 20:24S 22°54' W 043°12'0 0.0
2017-May-17 20:00S 22°54' W 043°12'0 0.0
2017-May-17 19:30S 22°54' W 043°12'0 0.0
2017-May-17 19:00S 22°54' W 043°12'0 0.0
2017-May-17 18:24S 22°54' W 043°12'0 0.0
2017-May-17 18:00S 22°54' W 043°12'0 0.0
2017-May-17 17:30S 22°54' W 043°12'0 0.0
2017-May-17 17:00S 22°54' W 043°12'0 0.0
2017-May-17 16:30S 22°54' W 043°12'0 0.0
2017-May-17 16:00S 22°54' W 043°12'0 0.0
2017-May-17 15:30S 22°54' W 043°12'0 0.0
2017-May-17 14:54S 22°54' W 043°12'0 0.0
2017-May-17 14:30S 22°54' W 043°12'0 0.0
2017-May-17 13:30S 22°54' W 043°12'0 0.0
2017-May-17 13:00S 22°54' W 043°12'0 0.0
2017-May-17 12:30S 22°54' W 043°12'0 0.0
2017-May-17 12:00S 22°54' W 043°12'0 0.0
2017-May-17 11:30S 22°54' W 043°12'0 0.0
2017-May-17 11:00S 22°54' W 043°12'0 0.0
2017-May-17 10:18S 22°54' W 043°12'0 0.0
2017-May-17 10:00S 22°54' W 043°12'0 0.0
2017-May-17 09:30S 22°54' W 043°12'0 0.0
2017-May-17 09:00S 22°54' W 043°12'0 0.0
2017-May-17 08:30S 22°54' W 043°12'0 0.0
2017-May-17 08:00S 22°54' W 043°12'0 0.0
2017-May-17 07:30S 22°54' W 043°12'0 0.0
2017-May-17 07:00S 22°54' W 043°12'0 0.0
2017-May-17 06:30S 22°54' W 043°12'0 0.0
2017-May-17 06:00S 22°54' W 043°12'0 0.0
2017-May-17 05:24S 22°54' W 043°12'0 0.0
2017-May-17 05:00S 22°54' W 043°12'0 0.0
2017-May-17 04:30S 22°54' W 043°12'0 0.0
2017-May-17 04:00S 22°54' W 043°12'0 0.0
2017-May-17 03:24S 22°54' W 043°12'0 0.0
2017-May-17 02:54S 22°54' W 043°12'0 0.0
2017-May-17 02:30S 22°54' W 043°12'0 0.0
2017-May-17 02:00S 22°54' W 043°12'0 0.0
2017-May-17 01:30S 22°54' W 043°12'0 0.0
2017-May-17 01:00S 22°54' W 043°12'0 0.0
2017-May-17 00:30S 22°54' W 043°12'0 0.0
2017-May-17 00:00S 22°54' W 043°12'0 0.0
2017-May-16 23:24S 22°54' W 043°12'0 0.0
2017-May-16 23:00S 22°54' W 043°12'0 0.0
2017-May-16 22:30S 22°54' W 043°12'0 0.0
2017-May-16 22:00S 22°54' W 043°12'0 0.0
2017-May-16 21:30S 22°54' W 043°12'0 0.0
2017-May-16 21:00S 22°54' W 043°12'0 0.0
2017-May-16 20:30S 22°54' W 043°12'0 0.0
2017-May-16 20:00S 22°54' W 043°12'0 0.0
2017-May-16 19:30S 22°54' W 043°12'0 0.0
2017-May-16 18:54S 22°54' W 043°12'0 0.0
2017-May-16 18:24S 22°54' W 043°12'0 0.0
2017-May-16 18:00S 22°54' W 043°12'0 0.0
2017-May-16 17:30S 22°54' W 043°12'0 0.0
2017-May-16 17:00S 22°54' W 043°12'0 0.0
2017-May-16 16:30S 22°54' W 043°12'0 0.0
2017-May-16 16:00S 22°54' W 043°12'0 0.0
2017-May-16 15:30S 22°54' W 043°12'0 0.0
2017-May-16 15:00S 22°54' W 043°12'0 0.0
2017-May-16 14:30S 22°54' W 043°12'0 0.0
2017-May-16 13:30S 22°54' W 043°12'0 0.0
2017-May-16 13:00S 22°54' W 043°12'0 0.0
2017-May-16 12:24S 22°54' W 043°12'0 0.0
2017-May-16 12:00S 22°54' W 043°12'0 0.0
2017-May-16 11:30S 22°54' W 043°12'0 0.0
2017-May-16 11:00S 22°54' W 043°12'0 0.0
2017-May-16 10:30S 22°54' W 043°12'0 0.0
2017-May-16 10:00S 22°54' W 043°12'0 0.0
2017-May-16 09:30S 22°54' W 043°12'0 0.0
2017-May-16 09:00S 22°54' W 043°12'0 0.0
2017-May-16 08:24S 22°54' W 043°12'0 0.0
2017-May-16 08:00S 22°54' W 043°12'0 0.0
2017-May-16 07:30S 22°54' W 043°12'0 0.0
2017-May-16 07:00S 22°54' W 043°12'0 0.0
2017-May-16 06:30S 22°54' W 043°12'0 0.0
2017-May-16 05:54S 22°54' W 043°12'0 0.0
2017-May-16 05:30S 22°54' W 043°12'0 0.0
2017-May-16 05:00S 22°54' W 043°12'0 0.0
2017-May-16 04:30S 22°54' W 043°12'0 0.0
2017-May-16 04:00S 22°54' W 043°12'0 0.0
2017-May-16 03:30S 22°54' W 043°12'0 0.0
2017-May-16 03:00S 22°54' W 043°12'0 0.0
2017-May-16 02:30S 22°54' W 043°12'0 0.0
2017-May-16 02:00S 22°54' W 043°12'0 0.0
2017-May-16 01:30S 22°54' W 043°12'0 0.0
2017-May-16 01:00S 22°54' W 043°12'0 0.0
2017-May-16 00:24S 22°54' W 043°12'0 0.0
2017-May-16 00:00S 22°54' W 043°12'0 0.0
2017-May-15 23:30S 22°54' W 043°12'0 0.0
2017-May-15 23:00S 22°54' W 043°12'0 0.0
2017-May-15 22:30S 22°54' W 043°12'0 0.0
2017-May-15 22:00S 22°54' W 043°12'0 0.0
2017-May-15 21:30S 22°54' W 043°12'0 0.0
2017-May-15 21:00S 22°54' W 043°12'0 0.0
2017-May-15 20:30S 22°54' W 043°12'0 0.0
2017-May-15 20:00S 22°54' W 043°12'0 0.0
2017-May-15 19:30S 22°54' W 043°12'0 0.0
2017-May-15 19:00S 22°54' W 043°12'0 0.0
2017-May-15 18:24S 22°54' W 043°12'0 0.0
2017-May-15 18:00S 22°54' W 043°12'0 0.0
2017-May-15 17:30S 22°54' W 043°12'0 0.0
2017-May-15 17:00S 22°54' W 043°12'0 0.0
2017-May-15 16:30S 22°54' W 043°12'0 0.0
2017-May-15 16:00S 22°54' W 043°12'0 0.0
2017-May-15 15:30S 22°54' W 043°12'0 0.0
2017-May-15 14:54S 22°54' W 043°12'0 0.0
2017-May-15 14:30S 22°54' W 043°12'0 0.0
2017-May-15 13:30S 22°54' W 043°12'0 0.0
2017-May-15 13:00S 22°54' W 043°12'0 0.0
2017-May-15 12:24S 22°54' W 043°12'0 0.0
2017-May-15 11:54S 22°54' W 043°12'0 0.0
2017-May-15 11:30S 22°54' W 043°12'0 0.0
2017-May-15 11:00S 22°54' W 043°12'0 0.0
2017-May-15 10:30S 22°54' W 043°12'0 0.0
2017-May-15 10:00S 22°54' W 043°12'0 0.0
2017-May-15 09:30S 22°54' W 043°12'0 0.0
2017-May-15 09:00S 22°54' W 043°12'0 0.0
2017-May-15 08:30S 22°54' W 043°12'0 0.0
2017-May-15 08:00S 22°54' W 043°12'0 0.0
2017-May-15 07:30S 22°54' W 043°12'0 0.0
2017-May-15 07:00S 22°54' W 043°12'0 0.2
2017-May-15 06:30S 22°53' W 043°12'1 2.1
2017-May-15 06:00S 22°53' W 043°10'4 8.4
2017-May-15 05:30S 22°57' W 043°08'2 4.5
2017-May-15 05:00S 22°59' W 043°07'1 1.6
2017-May-15 04:30S 22°60' W 043°07'1 2.2
2017-May-15 04:00S 23°01' W 043°07'1 0.3
2017-May-14 23:25S 23°02' W 043°08'0 0.0
2017-May-14 22:55S 23°02' W 043°08'0 0.0
2017-May-14 18:49S 23°02' W 043°08'0 0.1
2017-May-14 18:25S 23°02' W 043°08'0 0.0
2017-May-14 17:55S 23°02' W 043°08'0 0.1
2017-May-14 17:13S 23°02' W 043°08'0 0.1
2017-May-14 16:55S 23°02' W 043°08'0 0.0
2017-May-14 16:25S 23°02' W 043°08'0 0.2
2017-May-14 15:49S 23°02' W 043°08'0 0.0
2017-May-14 13:13S 23°02' W 043°08'0 0.1
2017-May-14 12:49S 23°02' W 043°08'0 0.0
2017-May-14 12:13S 23°02' W 043°08'0 0.0
2017-May-14 11:55S 23°02' W 043°08'0 0.0
2017-May-14 11:25S 23°02' W 043°08'0 0.0
2017-May-14 10:55S 23°02' W 043°08'0 0.0
2017-May-14 09:31S 23°02' W 043°08'0 0.2
2017-May-14 09:25S 23°02' W 043°08'0 0.0
2017-May-14 07:49S 23°02' W 043°08'0 0.1
2017-May-14 07:13S 23°02' W 043°08'0 0.0
2017-May-14 06:55S 23°02' W 043°08'0 0.0
2017-May-14 06:19S 23°02' W 043°08'0 0.0
2017-May-14 05:55S 23°02' W 043°08'0 0.0
2017-May-14 05:25S 23°02' W 043°08'0 0.1
2017-May-14 04:55S 23°02' W 043°08'0 0.0
2017-May-14 04:25S 23°02' W 043°08'0 0.0
2017-May-14 03:43S 23°02' W 043°08'0 0.0
2017-May-14 03:25S 23°02' W 043°08'0 0.1
2017-May-14 02:55S 23°02' W 043°08'0 0.1
2017-May-14 02:19S 23°02' W 043°08'0 0.0
2017-May-14 01:55S 23°02' W 043°08'0 0.0
2017-May-14 01:13S 23°02' W 043°08'0 0.1
2017-May-14 00:55S 23°02' W 043°08'0 0.0
2017-May-14 00:25S 23°02' W 043°08'0 0.1
2017-May-13 23:55S 23°02' W 043°08'0 0.0
2017-May-13 23:25S 23°02' W 043°08'0 0.0
2017-May-13 22:55S 23°02' W 043°08'0 0.0
2017-May-13 22:19S 23°02' W 043°08'0 0.0
2017-May-13 21:55S 23°02' W 043°08'0 0.0
2017-May-13 21:25S 23°02' W 043°08'0 0.0
2017-May-13 20:49S 23°02' W 043°08'0 0.0
2017-May-13 20:19S 23°02' W 043°08'0 0.0
2017-May-13 19:55S 23°02' W 043°08'0 0.0
2017-May-13 19:25S 23°02' W 043°08'0 0.0
2017-May-13 18:55S 23°02' W 043°08'0 0.0
2017-May-13 18:25S 23°02' W 043°08'0 0.0
2017-May-13 17:43S 23°02' W 043°08'0 0.1
2017-May-13 17:25S 23°02' W 043°08'0 0.0
2017-May-13 16:55S 23°02' W 043°08'0 0.0
2017-May-13 16:25S 23°02' W 043°08'0 0.0
2017-May-13 15:55S 23°02' W 043°08'0 0.1
2017-May-13 15:25S 23°02' W 043°08'0 0.0
2017-May-13 14:37S 23°02' W 043°08'0 0.1
2017-May-13 14:25S 23°02' W 043°08'0 0.0
2017-May-13 13:07S 23°02' W 043°08'0 0.1
2017-May-13 12:49S 23°02' W 043°08'0 0.0
2017-May-13 12:25S 23°02' W 043°08'0 0.0
2017-May-13 11:55S 23°02' W 043°08'0 0.1
2017-May-13 11:25S 23°02' W 043°08'0 0.1
2017-May-13 10:19S 23°02' W 043°08'0 0.1
2017-May-13 09:55S 23°02' W 043°08'0 0.0
2017-May-13 09:25S 23°02' W 043°08'0 0.0
2017-May-13 08:55S 23°02' W 043°08'0 0.0
2017-May-13 08:25S 23°02' W 043°08'0 0.0
2017-May-13 07:55S 23°02' W 043°08'0 0.0
2017-May-13 07:25S 23°02' W 043°08'0 0.0
2017-May-13 06:55S 23°02' W 043°08'0 0.0
2017-May-13 06:07S 23°02' W 043°08'0 0.0
2017-May-13 05:55S 23°02' W 043°08'0 0.0
2017-May-13 05:25S 23°02' W 043°08'0 0.0
2017-May-13 04:55S 23°02' W 043°08'0 0.0
2017-May-13 04:25S 23°02' W 043°08'0 0.0
2017-May-13 03:55S 23°02' W 043°08'0 0.0
2017-May-13 03:25S 23°02' W 043°08'0 0.0
2017-May-13 02:55S 23°02' W 043°08'0 0.0
2017-May-13 02:19S 23°02' W 043°08'0 0.1
2017-May-13 01:55S 23°02' W 043°08'0 0.1
2017-May-13 01:25S 23°02' W 043°08'0 0.0
2017-May-13 00:55S 23°02' W 043°08'0 0.0
2017-May-13 00:25S 23°02' W 043°08'0 0.1
2017-May-12 23:49S 23°02' W 043°08'0 0.1
2017-May-12 23:25S 23°02' W 043°08'0 0.0
2017-May-12 22:55S 23°02' W 043°08'0 0.0
2017-May-12 22:19S 23°02' W 043°08'0 0.0
2017-May-12 21:55S 23°02' W 043°08'0 0.0
2017-May-12 21:07S 23°02' W 043°08'0 0.0
2017-May-12 20:43S 23°02' W 043°08'0 0.0
2017-May-12 20:13S 23°02' W 043°08'0 0.0
2017-May-12 19:49S 23°02' W 043°08'0 0.0
2017-May-12 19:19S 23°02' W 043°08'0 0.0
2017-May-12 18:31S 23°02' W 043°08'0 0.0
2017-May-12 18:25S 23°02' W 043°08'0 0.0
2017-May-12 17:55S 23°02' W 043°08'  

Dump ship's entire track history